createdAt,value
2017-03-06T00:00:36.221Z,20.58
2017-03-06T00:01:50.577Z,20.66
2017-03-06T00:03:04.983Z,20.66
2017-03-06T00:04:19.418Z,20.7
2017-03-06T00:05:33.817Z,20.66
2017-03-06T00:06:48.246Z,20.62
2017-03-06T00:08:02.626Z,20.73
2017-03-06T00:09:17.074Z,20.72
2017-03-06T00:10:31.451Z,20.73
2017-03-06T00:11:45.862Z,20.74
2017-03-06T00:12:59.611Z,20.76
2017-03-06T00:14:13.988Z,20.64
2017-03-06T00:15:28.391Z,20.77
2017-03-06T00:16:42.148Z,20.73
2017-03-06T00:17:56.543Z,20.67
2017-03-06T00:19:10.943Z,20.48
2017-03-06T00:20:25.339Z,20.42
2017-03-06T00:21:39.119Z,20.33
2017-03-06T00:22:53.509Z,20.29
2017-03-06T00:24:07.908Z,20.28
2017-03-06T00:25:21.646Z,20.38
2017-03-06T00:26:36.029Z,20.26
2017-03-06T00:27:50.450Z,20.41
2017-03-06T00:29:04.870Z,20.39
2017-03-06T00:30:19.269Z,20.48
2017-03-06T00:31:33.682Z,20.47
2017-03-06T00:32:48.056Z,20.58
2017-03-06T00:34:02.524Z,20.47
2017-03-06T00:35:16.316Z,20.42
2017-03-06T00:36:30.088Z,20.48
2017-03-06T00:37:44.495Z,20.57
2017-03-06T00:38:58.939Z,20.5
2017-03-06T00:40:13.343Z,20.52
2017-03-06T00:41:27.737Z,20.61
2017-03-06T00:42:42.121Z,20.52
2017-03-06T00:43:55.893Z,20.52
2017-03-06T00:45:09.702Z,20.61
2017-03-06T00:46:24.108Z,20.59
2017-03-06T00:47:38.530Z,20.59
2017-03-06T00:48:52.305Z,20.54
2017-03-06T00:50:06.702Z,20.48
2017-03-06T00:51:21.121Z,20.51
2017-03-06T00:52:35.523Z,20.5
2017-03-06T00:53:49.926Z,20.51
2017-03-06T00:55:03.658Z,20.42
2017-03-06T00:56:18.067Z,20.51
2017-03-06T00:57:31.826Z,20.43
2017-03-06T00:58:46.263Z,20.41
2017-03-06T01:00:00.703Z,20.36
2017-03-06T01:01:15.100Z,20.47
2017-03-06T01:02:29.493Z,20.48
2017-03-06T01:03:43.909Z,20.48
2017-03-06T01:04:58.356Z,20.51
2017-03-06T01:06:12.761Z,20.47
2017-03-06T01:07:27.221Z,20.55
2017-03-06T01:08:41.611Z,20.58
2017-03-06T01:09:55.962Z,20.59
2017-03-06T01:11:10.645Z,20.57
2017-03-06T01:12:25.338Z,20.52
2017-03-06T01:13:39.714Z,20.61
2017-03-06T01:14:54.149Z,20.57
2017-03-06T01:16:08.559Z,20.52
2017-03-06T01:17:22.953Z,20.62
2017-03-06T01:18:37.425Z,20.62
2017-03-06T01:19:51.851Z,20.66
2017-03-06T01:21:05.593Z,20.59
2017-03-06T01:22:20.267Z,20.62
2017-03-06T01:23:34.707Z,20.7
2017-03-06T01:24:49.112Z,20.64
2017-03-06T01:26:03.527Z,20.58
2017-03-06T01:27:17.309Z,20.58
2017-03-06T01:28:31.103Z,20.57
2017-03-06T01:29:45.484Z,20.72
2017-03-06T01:31:00.391Z,20.57
2017-03-06T01:32:14.830Z,20.61
2017-03-06T01:33:29.238Z,20.55
2017-03-06T01:34:43.638Z,20.5
2017-03-06T01:35:57.395Z,20.51
2017-03-06T01:37:11.833Z,20.43
2017-03-06T01:38:26.249Z,20.42
2017-03-06T01:39:40.712Z,20.33
2017-03-06T01:40:55.126Z,20.31
2017-03-06T01:42:08.928Z,20.36
2017-03-06T01:43:23.427Z,20.33
2017-03-06T01:44:37.939Z,20.41
2017-03-06T01:45:52.352Z,20.36
2017-03-06T01:47:06.729Z,20.38
2017-03-06T01:48:21.143Z,20.31
2017-03-06T01:49:35.543Z,20.29
2017-03-06T01:50:49.943Z,20.35
2017-03-06T01:52:04.334Z,20.33
2017-03-06T01:53:18.813Z,20.41
2017-03-06T01:54:32.604Z,20.39
2017-03-06T01:55:47.070Z,20.28
2017-03-06T01:57:01.548Z,20.33
2017-03-06T01:58:15.407Z,20.28
2017-03-06T01:59:29.905Z,20.29
2017-03-06T02:00:43.660Z,20.28
2017-03-06T02:01:58.114Z,20.32
2017-03-06T02:03:12.536Z,20.33
2017-03-06T02:04:26.348Z,20.31
2017-03-06T02:05:40.770Z,20.39
2017-03-06T02:06:55.160Z,20.33
2017-03-06T02:08:09.659Z,20.33
2017-03-06T02:09:24.226Z,20.28
2017-03-06T02:10:38.711Z,20.38
2017-03-06T02:11:53.103Z,20.32
2017-03-06T02:13:07.507Z,20.35
2017-03-06T02:14:21.403Z,20.24
2017-03-06T02:15:35.339Z,20.24
2017-03-06T02:16:49.751Z,20.17
2017-03-06T02:18:04.188Z,20.26
2017-03-06T02:19:18.062Z,20.21
2017-03-06T02:20:31.952Z,20.29
2017-03-06T02:21:46.319Z,20.24
2017-03-06T02:23:00.748Z,20.28
2017-03-06T02:24:15.398Z,20.29
2017-03-06T02:25:29.442Z,20.23
2017-03-06T02:26:43.841Z,20.41
2017-03-06T02:27:58.230Z,20.32
2017-03-06T02:29:12.717Z,20.38
2017-03-06T02:30:27.362Z,20.32
2017-03-06T02:31:40.663Z,20.43
2017-03-06T02:32:55.047Z,20.33
2017-03-06T02:34:09.566Z,20.35
2017-03-06T02:35:24.267Z,20.38
2017-03-06T02:36:38.808Z,20.42
2017-03-06T02:37:52.582Z,20.39
2017-03-06T02:39:06.382Z,20.38
2017-03-06T02:40:21.037Z,20.43
2017-03-06T02:41:35.801Z,20.42
2017-03-06T02:42:50.200Z,20.42
2017-03-06T02:44:04.667Z,20.47
2017-03-06T02:45:19.408Z,20.47
2017-03-06T02:46:33.978Z,20.36
2017-03-06T02:47:47.746Z,20.41
2017-03-06T02:49:02.170Z,20.48
2017-03-06T02:50:16.204Z,20.5
2017-03-06T02:51:30.974Z,20.41
2017-03-06T02:52:45.436Z,20.33
2017-03-06T02:53:59.862Z,20.28
2017-03-06T02:55:14.430Z,20.31
2017-03-06T02:56:29.121Z,20.28
2017-03-06T02:57:43.595Z,20.17
2017-03-06T02:58:58.000Z,20.29
2017-03-06T03:00:11.933Z,20.28
2017-03-06T03:01:26.699Z,20.29
2017-03-06T03:02:41.111Z,20.28
2017-03-06T03:03:55.557Z,20.28
2017-03-06T03:05:10.017Z,20.24
2017-03-06T03:06:24.790Z,20.33
2017-03-06T03:07:38.818Z,20.48
2017-03-06T03:08:53.219Z,20.5
2017-03-06T03:10:07.769Z,20.5
2017-03-06T03:11:22.489Z,20.5
2017-03-06T03:12:37.047Z,20.47
2017-03-06T03:13:51.476Z,20.47
2017-03-06T03:15:05.987Z,20.48
2017-03-06T03:16:20.798Z,20.54
2017-03-06T03:17:34.808Z,20.48
2017-03-06T03:18:49.237Z,20.54
2017-03-06T03:20:03.722Z,20.5
2017-03-06T03:21:17.746Z,20.42
2017-03-06T03:22:32.432Z,20.47
2017-03-06T03:23:46.894Z,20.55
2017-03-06T03:25:01.281Z,20.59
2017-03-06T03:26:16.040Z,20.58
2017-03-06T03:27:29.460Z,20.47
2017-03-06T03:28:43.274Z,20.43
2017-03-06T03:29:57.071Z,20.51
2017-03-06T03:31:11.544Z,20.47
2017-03-06T03:32:26.259Z,20.55
2017-03-06T03:33:41.101Z,20.61
2017-03-06T03:34:55.481Z,20.52
2017-03-06T03:36:10.116Z,20.62
2017-03-06T03:37:24.954Z,20.61
2017-03-06T03:38:39.749Z,20.59
2017-03-06T03:39:54.141Z,20.66
2017-03-06T03:41:08.683Z,20.67
2017-03-06T03:42:23.367Z,20.64
2017-03-06T03:43:37.465Z,20.62
2017-03-06T03:44:51.875Z,20.7
2017-03-06T03:46:06.382Z,20.67
2017-03-06T03:47:20.417Z,20.62
2017-03-06T03:48:34.317Z,20.69
2017-03-06T03:49:48.710Z,20.64
2017-03-06T03:51:03.133Z,20.67
2017-03-06T03:52:17.110Z,20.67
2017-03-06T03:53:31.713Z,20.67
2017-03-06T03:54:46.090Z,20.64
2017-03-06T03:56:00.520Z,20.58
2017-03-06T03:57:15.103Z,20.77
2017-03-06T03:58:29.841Z,20.74
2017-03-06T03:59:43.061Z,20.73
2017-03-06T04:00:57.499Z,20.61
2017-03-06T04:02:11.451Z,20.79
2017-03-06T04:03:26.156Z,20.79
2017-03-06T04:04:41.118Z,20.79
2017-03-06T04:05:54.916Z,20.76
2017-03-06T04:07:09.406Z,20.77
2017-03-06T04:08:24.248Z,20.73
2017-03-06T04:09:38.966Z,20.77
2017-03-06T04:10:53.362Z,20.72
2017-03-06T04:12:07.915Z,20.59
2017-03-06T04:13:21.929Z,20.7
2017-03-06T04:14:36.515Z,20.64
2017-03-06T04:15:50.943Z,20.58
2017-03-06T04:17:05.352Z,20.66
2017-03-06T04:18:20.124Z,20.69
2017-03-06T04:19:34.878Z,20.7
2017-03-06T04:20:49.284Z,20.59
2017-03-06T04:22:03.696Z,20.69
2017-03-06T04:23:18.260Z,20.59
2017-03-06T04:24:32.964Z,20.62
2017-03-06T04:25:47.359Z,20.67
2017-03-06T04:27:01.800Z,20.58
2017-03-06T04:28:16.485Z,20.64
2017-03-06T04:29:31.226Z,20.66
2017-03-06T04:30:45.694Z,20.67
2017-03-06T04:32:00.129Z,20.64
2017-03-06T04:33:14.679Z,20.67
2017-03-06T04:34:29.327Z,20.62
2017-03-06T04:35:43.180Z,20.59
2017-03-06T04:36:56.283Z,20.61
2017-03-06T04:38:10.844Z,20.55
2017-03-06T04:39:25.479Z,20.57
2017-03-06T04:40:39.890Z,20.58
2017-03-06T04:41:54.296Z,20.57
2017-03-06T04:43:08.709Z,20.54
2017-03-06T04:44:23.183Z,20.61
2017-03-06T04:45:37.635Z,20.62
2017-03-06T04:46:51.460Z,20.62
2017-03-06T04:48:05.949Z,20.61
2017-03-06T04:49:19.977Z,20.67
2017-03-06T04:50:34.450Z,20.64
2017-03-06T04:51:48.869Z,20.69
2017-03-06T04:53:03.318Z,20.62
2017-03-06T04:54:17.796Z,20.66
2017-03-06T04:55:32.192Z,20.62
2017-03-06T04:56:46.597Z,20.62
2017-03-06T04:58:01.023Z,20.69
2017-03-06T04:59:15.461Z,20.73
2017-03-06T05:00:29.982Z,20.73
2017-03-06T05:01:44.413Z,20.67
2017-03-06T05:02:58.178Z,20.72
2017-03-06T05:04:12.650Z,20.72
2017-03-06T05:05:27.033Z,20.59
2017-03-06T05:06:41.409Z,20.73
2017-03-06T05:07:55.828Z,20.62
2017-03-06T05:09:10.269Z,20.72
2017-03-06T05:10:24.791Z,20.79
2017-03-06T05:11:39.205Z,20.76
2017-03-06T05:12:53.615Z,20.84
2017-03-06T05:14:08.001Z,20.85
2017-03-06T05:15:22.406Z,20.79
2017-03-06T05:16:36.837Z,20.77
2017-03-06T05:17:51.301Z,20.64
2017-03-06T05:19:05.716Z,20.69
2017-03-06T05:20:20.099Z,20.64
2017-03-06T05:21:34.558Z,20.62
2017-03-06T05:22:48.989Z,20.72
2017-03-06T05:24:03.430Z,20.72
2017-03-06T05:25:17.807Z,20.7
2017-03-06T05:26:32.209Z,20.79
2017-03-06T05:27:46.618Z,20.79
2017-03-06T05:29:01.048Z,20.73
2017-03-06T05:30:15.463Z,20.79
2017-03-06T05:31:29.888Z,20.79
2017-03-06T05:32:44.290Z,20.77
2017-03-06T05:33:58.715Z,20.85
2017-03-06T05:35:13.129Z,20.85
2017-03-06T05:36:27.545Z,20.91
2017-03-06T05:37:41.936Z,20.91
2017-03-06T05:38:56.375Z,20.84
2017-03-06T05:40:10.768Z,20.85
2017-03-06T05:41:25.185Z,20.8
2017-03-06T05:42:38.951Z,20.84
2017-03-06T05:43:52.721Z,20.79
2017-03-06T05:45:07.176Z,20.8
2017-03-06T05:46:21.585Z,20.82
2017-03-06T05:47:35.342Z,20.76
2017-03-06T05:48:49.759Z,20.82
2017-03-06T05:50:04.189Z,20.99
2017-03-06T05:51:18.613Z,21.01
2017-03-06T05:52:33.011Z,20.99
2017-03-06T05:53:47.445Z,20.99
2017-03-06T05:55:01.927Z,20.98
2017-03-06T05:56:16.332Z,20.94
2017-03-06T05:57:30.791Z,20.92
2017-03-06T05:58:45.260Z,20.95
2017-03-06T05:59:59.718Z,20.91
2017-03-06T06:01:12.839Z,20.97
2017-03-06T06:02:27.222Z,20.91
2017-03-06T06:03:41.616Z,20.85
2017-03-06T06:04:55.381Z,20.85
2017-03-06T06:06:09.157Z,20.79
2017-03-06T06:07:23.580Z,20.8
2017-03-06T06:08:38.005Z,20.7
2017-03-06T06:09:52.380Z,20.7
2017-03-06T06:11:06.822Z,20.59
2017-03-06T06:12:21.277Z,20.61
2017-03-06T06:13:35.706Z,20.67
2017-03-06T06:14:50.113Z,20.51
2017-03-06T06:16:04.510Z,20.57
2017-03-06T06:17:18.909Z,20.5
2017-03-06T06:18:32.632Z,20.55
2017-03-06T06:19:47.036Z,20.5
2017-03-06T06:21:00.815Z,20.52
2017-03-06T06:22:15.258Z,20.5
2017-03-06T06:23:29.655Z,20.64
2017-03-06T06:24:44.072Z,20.51
2017-03-06T06:25:57.839Z,20.62
2017-03-06T06:27:12.273Z,20.51
2017-03-06T06:28:26.767Z,20.61
2017-03-06T06:29:41.189Z,20.5
2017-03-06T06:30:55.605Z,20.62
2017-03-06T06:32:10.008Z,20.58
2017-03-06T06:33:23.763Z,20.58
2017-03-06T06:34:38.183Z,20.52
2017-03-06T06:35:51.949Z,20.5
2017-03-06T06:37:06.325Z,20.52
2017-03-06T06:38:19.420Z,20.43
2017-03-06T06:39:33.820Z,20.58
2017-03-06T06:40:48.219Z,20.57
2017-03-06T06:42:02.614Z,20.59
2017-03-06T06:43:16.996Z,20.59
2017-03-06T06:44:31.403Z,20.48
2017-03-06T06:45:45.817Z,20.52
2017-03-06T06:47:00.252Z,20.61
2017-03-06T06:48:14.655Z,20.43
2017-03-06T06:49:28.377Z,20.57
2017-03-06T06:50:42.775Z,20.43
2017-03-06T06:51:57.160Z,20.58
2017-03-06T06:53:11.564Z,20.57
2017-03-06T06:54:26.019Z,20.61
2017-03-06T06:55:40.449Z,20.42
2017-03-06T06:56:54.829Z,20.57
2017-03-06T06:58:09.247Z,20.57
2017-03-06T06:59:23.650Z,20.52
2017-03-06T07:00:37.419Z,20.58
2017-03-06T07:01:51.832Z,20.54
2017-03-06T07:03:04.975Z,20.58
2017-03-06T07:04:19.355Z,20.55
2017-03-06T07:05:33.725Z,20.61
2017-03-06T07:06:47.490Z,20.48
2017-03-06T07:08:01.901Z,20.59
2017-03-06T07:09:16.271Z,20.57
2017-03-06T07:10:30.665Z,20.55
2017-03-06T07:11:45.055Z,20.52
2017-03-06T07:12:59.459Z,20.47
2017-03-06T07:14:13.866Z,20.54
2017-03-06T07:15:28.258Z,20.58
2017-03-06T07:16:42.668Z,20.42
2017-03-06T07:17:57.071Z,20.48
2017-03-06T07:19:11.485Z,20.52
2017-03-06T07:20:25.863Z,20.47
2017-03-06T07:21:40.263Z,20.5
2017-03-06T07:22:54.652Z,20.47
2017-03-06T07:24:09.074Z,20.47
2017-03-06T07:25:22.847Z,20.42
2017-03-06T07:26:37.232Z,20.51
2017-03-06T07:27:51.677Z,20.5
2017-03-06T07:29:05.461Z,20.48
2017-03-06T07:30:19.841Z,20.51
2017-03-06T07:31:34.267Z,20.47
2017-03-06T07:32:48.668Z,20.51
2017-03-06T07:34:01.771Z,20.47
2017-03-06T07:35:16.153Z,20.48
2017-03-06T07:36:29.961Z,20.59
2017-03-06T07:37:43.721Z,20.61
2017-03-06T07:38:58.121Z,20.58
2017-03-06T07:40:11.878Z,20.58
2017-03-06T07:41:25.644Z,20.5
2017-03-06T07:42:40.087Z,20.58
2017-03-06T07:43:54.467Z,20.54
2017-03-06T07:45:08.852Z,20.51
2017-03-06T07:46:23.344Z,20.54
2017-03-06T07:47:37.784Z,20.59
2017-03-06T07:48:52.194Z,20.67
2017-03-06T07:50:06.596Z,20.69
2017-03-06T07:51:20.372Z,20.7
2017-03-06T07:52:34.812Z,20.72
2017-03-06T07:53:48.538Z,20.61
2017-03-06T07:55:02.932Z,20.64
2017-03-06T07:56:17.337Z,20.7
2017-03-06T07:57:31.745Z,20.59
2017-03-06T07:58:46.160Z,20.64
2017-03-06T08:00:00.621Z,20.58
2017-03-06T08:01:13.750Z,20.58
2017-03-06T08:02:28.141Z,20.59
2017-03-06T08:03:42.549Z,20.62
2017-03-06T08:04:56.972Z,20.58
2017-03-06T08:06:10.728Z,20.57
2017-03-06T08:07:24.480Z,20.62
2017-03-06T08:08:38.301Z,20.58
2017-03-06T08:09:50.769Z,20.55
2017-03-06T08:11:05.188Z,20.55
2017-03-06T08:12:18.921Z,20.58
2017-03-06T08:13:32.644Z,20.59
2017-03-06T08:14:47.011Z,20.57
2017-03-06T08:16:01.385Z,20.55
2017-03-06T08:17:15.845Z,20.51
2017-03-06T08:18:30.259Z,20.57
2017-03-06T08:19:44.705Z,20.55
2017-03-06T08:20:59.126Z,20.57
2017-03-06T08:22:13.511Z,20.55
2017-03-06T08:23:27.874Z,20.59
2017-03-06T08:24:41.648Z,20.55
2017-03-06T08:25:55.419Z,20.54
2017-03-06T08:27:09.841Z,20.61
2017-03-06T08:28:24.260Z,20.59
2017-03-06T08:29:38.648Z,20.61
2017-03-06T08:30:52.426Z,20.58
2017-03-06T08:32:06.815Z,20.43
2017-03-06T08:33:21.262Z,20.59
2017-03-06T08:34:35.012Z,20.5
2017-03-06T08:35:49.417Z,20.61
2017-03-06T08:37:03.819Z,20.57
2017-03-06T08:38:18.215Z,20.58
2017-03-06T08:39:32.626Z,20.5
2017-03-06T08:40:47.054Z,20.52
2017-03-06T08:42:01.453Z,20.57
2017-03-06T08:43:15.928Z,20.58
2017-03-06T08:44:29.696Z,20.51
2017-03-06T08:45:42.766Z,20.54
2017-03-06T08:46:56.504Z,20.51
2017-03-06T08:48:10.924Z,20.62
2017-03-06T08:49:24.659Z,20.57
2017-03-06T08:50:38.406Z,20.51
2017-03-06T08:51:52.178Z,20.61
2017-03-06T08:53:06.588Z,20.64
2017-03-06T08:54:21.010Z,20.57
2017-03-06T08:55:35.453Z,20.47
2017-03-06T08:56:49.875Z,20.51
2017-03-06T08:58:04.290Z,20.64
2017-03-06T08:59:17.378Z,20.69
2017-03-06T09:00:31.764Z,20.64
2017-03-06T09:01:46.161Z,20.62
2017-03-06T09:03:00.555Z,20.67
2017-03-06T09:04:14.958Z,20.61
2017-03-06T09:05:29.335Z,20.48
2017-03-06T09:06:43.084Z,20.47
2017-03-06T09:07:56.843Z,20.59
2017-03-06T09:09:11.218Z,20.61
2017-03-06T09:10:24.958Z,20.58
2017-03-06T09:11:38.710Z,20.58
2017-03-06T09:12:52.506Z,20.58
2017-03-06T09:14:06.258Z,20.51
2017-03-06T09:15:20.672Z,20.62
2017-03-06T09:16:35.080Z,20.61
2017-03-06T09:17:49.464Z,20.57
2017-03-06T09:19:03.856Z,20.62
2017-03-06T09:20:18.260Z,20.57
2017-03-06T09:21:32.049Z,20.51
2017-03-06T09:22:46.411Z,20.59
2017-03-06T09:24:00.796Z,20.66
2017-03-06T09:25:15.204Z,20.58
2017-03-06T09:26:29.579Z,20.52
2017-03-06T09:27:43.316Z,20.62
2017-03-06T09:28:57.724Z,20.64
2017-03-06T09:30:11.518Z,20.74
2017-03-06T09:31:25.917Z,20.76
2017-03-06T09:32:40.317Z,20.73
2017-03-06T09:33:54.723Z,20.7
2017-03-06T09:35:09.119Z,20.8
2017-03-06T09:36:23.500Z,20.82
2017-03-06T09:37:37.240Z,20.85
2017-03-06T09:38:51.645Z,20.84
2017-03-06T09:40:06.045Z,20.85
2017-03-06T09:41:20.468Z,20.91
2017-03-06T09:42:34.862Z,20.92
2017-03-06T09:43:49.320Z,20.91
2017-03-06T09:45:03.704Z,20.88
2017-03-06T09:46:17.467Z,20.97
2017-03-06T09:47:31.909Z,20.95
2017-03-06T09:48:46.305Z,21.03
2017-03-06T09:50:00.667Z,21.06
2017-03-06T09:51:15.075Z,21.19
2017-03-06T09:52:29.489Z,21.07
2017-03-06T09:53:43.898Z,21.22
2017-03-06T09:54:57.722Z,21.24
2017-03-06T09:56:12.166Z,21.42
2017-03-06T09:57:26.539Z,21.49
2017-03-06T09:58:40.964Z,21.56
2017-03-06T09:59:54.753Z,21.71
2017-03-06T10:01:09.181Z,21.82
2017-03-06T10:02:23.568Z,21.83
2017-03-06T10:03:37.325Z,21.86
2017-03-06T10:04:50.459Z,21.68
2017-03-06T10:06:04.890Z,21.75
2017-03-06T10:07:18.002Z,21.75
2017-03-06T10:08:31.803Z,21.75
2017-03-06T10:09:46.183Z,21.75
2017-03-06T10:11:00.555Z,21.69
2017-03-06T10:12:14.361Z,21.77
2017-03-06T10:13:28.138Z,21.88
2017-03-06T10:14:41.264Z,21.86
2017-03-06T10:15:55.068Z,21.88
2017-03-06T10:17:09.467Z,21.9
2017-03-06T10:18:23.892Z,21.86
2017-03-06T10:19:38.326Z,21.94
2017-03-06T10:20:51.471Z,21.88
2017-03-06T10:22:05.871Z,21.92
2017-03-06T10:23:20.276Z,22.06
2017-03-06T10:24:34.704Z,22.14
2017-03-06T10:25:48.461Z,22.24
2017-03-06T10:27:02.235Z,22.28
2017-03-06T10:28:16.623Z,22.55
2017-03-06T10:29:31.004Z,22.67
2017-03-06T10:30:44.791Z,22.83
2017-03-06T10:31:59.226Z,23.07
2017-03-06T10:33:13.618Z,23.2
2017-03-06T10:34:28.003Z,23.4
2017-03-06T10:35:42.418Z,23.35
2017-03-06T10:36:56.823Z,23.23
2017-03-06T10:38:11.220Z,23.16
2017-03-06T10:39:24.952Z,23.31
2017-03-06T10:40:39.375Z,23.33
2017-03-06T10:41:53.148Z,23.46
2017-03-06T10:43:07.565Z,23.54
2017-03-06T10:44:21.982Z,23.57
2017-03-06T10:45:35.748Z,23.6
2017-03-06T10:46:50.197Z,23.54
2017-03-06T10:48:04.632Z,23.57
2017-03-06T10:49:18.394Z,23.68
2017-03-06T10:50:32.803Z,23.7
2017-03-06T10:51:47.207Z,23.75
2017-03-06T10:53:00.334Z,23.88
2017-03-06T10:54:14.111Z,23.83
2017-03-06T10:55:28.540Z,23.84
2017-03-06T10:56:42.952Z,23.85
2017-03-06T10:57:56.066Z,23.83
2017-03-06T10:59:09.826Z,23.83
2017-03-06T11:00:24.219Z,24.05
2017-03-06T11:01:37.955Z,24.15
2017-03-06T11:02:52.397Z,24.31
2017-03-06T11:04:06.145Z,24.39
2017-03-06T11:05:20.529Z,24.4
2017-03-06T11:06:34.907Z,24.49
2017-03-06T11:07:49.333Z,24.6
2017-03-06T11:09:03.773Z,24.71
2017-03-06T11:10:18.191Z,24.62
2017-03-06T11:11:32.636Z,24.55
2017-03-06T11:12:47.037Z,24.73
2017-03-06T11:14:01.438Z,24.77
2017-03-06T11:15:16.066Z,24.95
2017-03-06T11:16:30.487Z,25.02
2017-03-06T11:17:44.899Z,25.17
2017-03-06T11:18:59.277Z,25.08
2017-03-06T11:20:13.036Z,25.08
2017-03-06T11:21:27.435Z,25.18
2017-03-06T11:22:41.235Z,25.14
2017-03-06T11:23:55.631Z,25.02
2017-03-06T11:25:10.080Z,24.95
2017-03-06T11:26:23.236Z,24.9
2017-03-06T11:27:37.654Z,25
2017-03-06T11:28:52.065Z,25.05
2017-03-06T11:30:06.466Z,25.24
2017-03-06T11:31:20.876Z,25.13
2017-03-06T11:32:35.325Z,25.18
2017-03-06T11:33:49.783Z,25.2
2017-03-06T11:35:03.572Z,25.14
2017-03-06T11:36:17.989Z,25.15
2017-03-06T11:37:31.771Z,25.15
2017-03-06T11:38:46.238Z,25.32
2017-03-06T11:40:00.029Z,25.36
2017-03-06T11:41:13.797Z,25.35
2017-03-06T11:42:28.228Z,25.58
2017-03-06T11:43:42.622Z,25.69
2017-03-06T11:44:57.027Z,25.9
2017-03-06T11:46:10.801Z,26.05
2017-03-06T11:47:24.590Z,25.8
2017-03-06T11:48:39.092Z,25.72
2017-03-06T11:49:53.614Z,25.58
2017-03-06T11:51:08.032Z,25.45
2017-03-06T11:52:22.488Z,25.46
2017-03-06T11:53:36.894Z,25.52
2017-03-06T11:54:50.668Z,25.67
2017-03-06T11:56:05.094Z,25.87
2017-03-06T11:57:18.909Z,26.07
2017-03-06T11:58:32.653Z,26.29
2017-03-06T11:59:46.379Z,26.25
2017-03-06T12:01:00.823Z,26.29
2017-03-06T12:02:15.234Z,26.4
2017-03-06T12:03:56.941Z,26.52
2017-03-06T12:05:11.378Z,26.66
2017-03-06T12:06:25.782Z,26.72
2017-03-06T12:07:40.208Z,27.06
2017-03-06T12:08:54.621Z,27.37
2017-03-06T12:10:09.074Z,27.69
2017-03-06T12:11:23.559Z,27.9
2017-03-06T12:12:37.966Z,28.03
2017-03-06T12:13:52.380Z,28.24
2017-03-06T12:15:06.823Z,28.44
2017-03-06T12:16:21.325Z,28.77
2017-03-06T12:17:35.768Z,28.93
2017-03-06T12:18:50.188Z,28.9
2017-03-06T12:20:03.959Z,28.86
2017-03-06T12:21:18.365Z,28.7
2017-03-06T12:22:32.786Z,28.34
2017-03-06T12:23:47.247Z,28.18
2017-03-06T12:25:18.260Z,27.88
2017-03-06T12:26:32.688Z,27.9
2017-03-06T12:27:47.128Z,27.93
2017-03-06T12:29:00.902Z,27.77
2017-03-06T12:30:14.728Z,27.7
2017-03-06T12:31:29.324Z,27.67
2017-03-06T12:32:43.835Z,27.77
2017-03-06T12:33:57.598Z,27.81
2017-03-06T12:35:12.018Z,27.85
2017-03-06T12:36:26.425Z,27.84
2017-03-06T12:37:40.842Z,27.87
2017-03-06T12:38:54.607Z,27.88
2017-03-06T12:40:09.051Z,27.85
2017-03-06T12:41:22.829Z,27.88
2017-03-06T12:42:37.232Z,28.03
2017-03-06T12:43:50.995Z,27.99
2017-03-06T12:45:05.437Z,27.93
2017-03-06T12:46:19.841Z,27.87
2017-03-06T12:47:34.289Z,28.09
2017-03-06T12:48:48.131Z,28.22
2017-03-06T12:50:02.542Z,28.24
2017-03-06T12:51:16.340Z,28.55
2017-03-06T12:52:30.185Z,28.76
2017-03-06T12:53:44.985Z,28.93
2017-03-06T12:54:58.975Z,29.11
2017-03-06T12:56:13.430Z,29.08
2017-03-06T12:57:27.923Z,29.23
2017-03-06T12:58:42.338Z,29.23
2017-03-06T12:59:56.752Z,28.98
2017-03-06T13:01:10.523Z,28.9
2017-03-06T13:02:24.618Z,28.9
2017-03-06T13:03:38.327Z,28.8
2017-03-06T13:04:51.480Z,28.86
2017-03-06T13:06:04.623Z,28.88
2017-03-06T13:07:18.640Z,28.93
2017-03-06T13:08:31.177Z,29.09
2017-03-06T13:09:44.923Z,29.23
2017-03-06T13:10:58.044Z,29.33
2017-03-06T13:12:11.751Z,29.3
2017-03-06T13:13:25.546Z,29.55
2017-03-06T13:14:39.338Z,29.63
2017-03-06T13:15:53.077Z,29.63
2017-03-06T13:17:06.822Z,29.71
2017-03-06T13:18:20.540Z,29.79
2017-03-06T13:19:34.272Z,29.89
2017-03-06T13:20:46.830Z,30.04
2017-03-06T13:22:00.534Z,30.05
2017-03-06T13:23:13.679Z,29.98
2017-03-06T13:24:26.789Z,29.92
2017-03-06T13:25:40.532Z,29.87
2017-03-06T13:26:54.275Z,29.65
2017-03-06T13:28:08.081Z,29.53
2017-03-06T13:29:21.808Z,29.63
2017-03-06T13:30:35.555Z,29.42
2017-03-06T13:31:49.261Z,29.21
2017-03-06T13:33:03.035Z,29.14
2017-03-06T13:34:16.766Z,29.23
2017-03-06T13:35:29.893Z,29.11
2017-03-06T13:36:43.636Z,29.16
2017-03-06T13:37:57.355Z,29.12
2017-03-06T13:39:11.100Z,29.14
2017-03-06T13:40:24.855Z,29.21
2017-03-06T13:41:37.377Z,29.21
2017-03-06T13:42:51.072Z,29.21
2017-03-06T13:44:04.234Z,29.11
2017-03-06T13:45:17.972Z,29.11
2017-03-06T13:46:31.712Z,28.95
2017-03-06T13:47:45.466Z,28.74
2017-03-06T13:48:59.230Z,28.96
2017-03-06T13:50:12.350Z,28.9
2017-03-06T13:51:26.084Z,28.88
2017-03-06T13:52:39.191Z,28.9
2017-03-06T13:53:52.905Z,28.86
2017-03-06T13:55:06.006Z,28.71
2017-03-06T13:56:19.129Z,28.71
2017-03-06T13:57:32.878Z,28.74
2017-03-06T13:58:46.632Z,29.09
2017-03-06T14:00:00.405Z,29.18
2017-03-06T14:01:13.532Z,29.19
2017-03-06T14:02:26.700Z,29.24
2017-03-06T14:03:40.404Z,29.46
2017-03-06T14:04:54.142Z,29.48
2017-03-06T14:06:06.683Z,29.8
2017-03-06T14:07:20.424Z,29.98
2017-03-06T14:08:33.584Z,29.89
2017-03-06T14:09:47.302Z,29.97
2017-03-06T14:11:01.034Z,30.05
2017-03-06T14:12:14.786Z,30.2
2017-03-06T14:13:28.367Z,30.01
2017-03-06T14:14:41.494Z,30.17
2017-03-06T14:15:55.244Z,30.23
2017-03-06T14:17:08.986Z,30.23
2017-03-06T14:18:22.737Z,30.35
2017-03-06T14:19:36.482Z,30.35
2017-03-06T14:20:50.219Z,30.05
2017-03-06T14:22:03.977Z,29.67
2017-03-06T14:23:17.680Z,29.65
2017-03-06T14:24:30.219Z,29.78
2017-03-06T14:25:43.358Z,29.97
2017-03-06T14:26:57.075Z,30.04
2017-03-06T14:28:10.791Z,30.1
2017-03-06T14:29:23.955Z,29.94
2017-03-06T14:30:37.658Z,29.74
2017-03-06T14:31:51.392Z,29.49
2017-03-06T14:33:05.138Z,29.39
2017-03-06T14:34:18.850Z,29.28
2017-03-06T14:35:31.463Z,29.31
2017-03-06T14:36:45.179Z,29.43
2017-03-06T14:37:58.971Z,29.34
2017-03-06T14:39:12.745Z,29.14
2017-03-06T14:40:26.467Z,29.05
2017-03-06T14:41:39.591Z,28.88
2017-03-06T14:42:52.733Z,28.92
2017-03-06T14:44:05.864Z,28.81
2017-03-06T14:45:18.977Z,29.15
2017-03-06T14:46:32.708Z,29.45
2017-03-06T14:47:45.289Z,29.58
2017-03-06T14:48:59.022Z,29.82
2017-03-06T14:50:12.163Z,29.98
2017-03-06T14:51:25.896Z,29.92
2017-03-06T14:52:39.691Z,29.55
2017-03-06T14:53:52.243Z,29.12
2017-03-06T14:55:06.004Z,29
2017-03-06T14:56:19.755Z,28.73
2017-03-06T14:57:33.464Z,28.12
2017-03-06T14:58:47.188Z,27.82
2017-03-06T15:00:00.912Z,27.49
2017-03-06T15:01:14.693Z,27.54
2017-03-06T15:02:28.491Z,27.46
2017-03-06T15:03:42.239Z,27.57
2017-03-06T15:04:56.031Z,27.87
2017-03-06T15:06:09.160Z,27.99
2017-03-06T15:07:22.895Z,27.88
2017-03-06T15:08:36.654Z,27.85
2017-03-06T15:09:49.787Z,27.65
2017-03-06T15:11:03.477Z,27.49
2017-03-06T15:12:17.218Z,27.39
2017-03-06T15:13:30.986Z,27.02
2017-03-06T15:14:44.737Z,26.66
2017-03-06T15:15:58.489Z,26.77
2017-03-06T15:17:12.231Z,26.91
2017-03-06T15:18:25.955Z,27.03
2017-03-06T15:19:39.669Z,26.73
2017-03-06T15:20:53.407Z,26.57
2017-03-06T15:22:05.932Z,26.45
2017-03-06T15:23:19.692Z,26.5
2017-03-06T15:24:32.865Z,26.47
2017-03-06T15:25:46.615Z,26.39
2017-03-06T15:26:59.738Z,26.39
2017-03-06T15:28:13.464Z,26.4
2017-03-06T15:29:27.174Z,26.5
2017-03-06T15:30:40.889Z,26.52
2017-03-06T15:31:54.628Z,26.63
2017-03-06T15:33:08.386Z,26.67
2017-03-06T15:34:22.138Z,26.47
2017-03-06T15:35:35.874Z,26.26
2017-03-06T15:36:49.025Z,26.07
2017-03-06T15:38:02.786Z,25.67
2017-03-06T15:39:15.923Z,25.38
2017-03-06T15:40:29.661Z,25.02
2017-03-06T15:41:43.391Z,24.96
2017-03-06T15:42:57.154Z,24.62
2017-03-06T15:44:10.287Z,24.49
2017-03-06T15:45:24.053Z,24.35
2017-03-06T15:46:37.811Z,24.2
2017-03-06T15:47:51.559Z,24.08
2017-03-06T15:49:05.286Z,24.03
2017-03-06T15:50:19.003Z,23.85
2017-03-06T15:51:32.749Z,23.75
2017-03-06T15:52:45.905Z,23.58
2017-03-06T15:53:59.775Z,23.13
2017-03-06T16:03:42.199Z,22.1
2017-03-06T16:04:55.917Z,22
2017-03-06T16:06:08.429Z,22.03
2017-03-06T16:07:22.142Z,21.94